createdAt,value
2023-02-16T00:00:21.490Z,87.80
2023-02-16T00:03:24.708Z,88.00
2023-02-16T00:06:28.820Z,88.30
2023-02-16T00:09:31.792Z,88.80
2023-02-16T00:12:54.588Z,88.80
2023-02-16T00:15:58.002Z,89.00
2023-02-16T00:19:00.898Z,89.10
2023-02-16T00:22:05.245Z,89.70
2023-02-16T00:25:08.320Z,90.00
2023-02-16T00:28:19.677Z,90.10
2023-02-16T00:31:24.747Z,90.00
2023-02-16T00:34:34.079Z,90.20
2023-02-16T00:37:36.388Z,90.10
2023-02-16T00:40:38.845Z,90.10
2023-02-16T00:43:40.914Z,90.30
2023-02-16T00:46:44.445Z,90.20
2023-02-16T00:49:51.572Z,90.40
2023-02-16T00:52:53.932Z,90.40
2023-02-16T00:55:57.099Z,90.40
2023-02-16T00:58:59.983Z,90.50
2023-02-16T01:02:01.979Z,90.40
2023-02-16T01:05:04.678Z,90.40
2023-02-16T01:08:33.365Z,90.70
2023-02-16T01:11:35.483Z,90.40
2023-02-16T01:14:37.622Z,90.40
2023-02-16T01:17:39.838Z,90.50
2023-02-16T01:20:42.359Z,90.40
2023-02-16T01:23:44.658Z,90.50
2023-02-16T01:26:49.822Z,90.50
2023-02-16T01:29:51.837Z,90.50
2023-02-16T01:32:54.455Z,90.40
2023-02-16T01:35:57.420Z,90.40
2023-02-16T01:39:00.320Z,90.50
2023-02-16T01:42:13.963Z,90.40
2023-02-16T01:45:20.432Z,90.50
2023-02-16T01:48:28.930Z,90.40
2023-02-16T01:51:49.326Z,90.50
2023-02-16T01:55:13.909Z,90.60
2023-02-16T01:59:05.072Z,90.60
2023-02-16T02:02:36.334Z,90.60
2023-02-16T02:05:39.735Z,90.70
2023-02-16T02:09:02.138Z,90.70
2023-02-16T02:12:14.385Z,90.80
2023-02-16T02:15:19.728Z,90.80
2023-02-16T02:18:22.702Z,90.90
2023-02-16T02:21:57.043Z,91.00
2023-02-16T02:25:15.438Z,91.10
2023-02-16T02:28:26.578Z,91.20
2023-02-16T02:31:37.179Z,91.10
2023-02-16T02:34:48.290Z,91.20
2023-02-16T02:38:09.765Z,91.10
2023-02-16T02:41:46.464Z,91.00
2023-02-16T02:45:14.120Z,91.00
2023-02-16T02:48:16.271Z,91.00
2023-02-16T02:51:30.989Z,91.00
2023-02-16T02:54:56.488Z,91.00
2023-02-16T02:58:37.364Z,91.00
2023-02-16T03:01:43.298Z,91.20
2023-02-16T03:04:48.298Z,91.10
2023-02-16T03:07:57.441Z,91.10
2023-02-16T03:11:28.633Z,91.10
2023-02-16T03:14:51.576Z,91.20
2023-02-16T03:18:15.183Z,91.30
2023-02-16T03:21:36.016Z,91.30
2023-02-16T03:24:56.516Z,91.40
2023-02-16T03:28:21.456Z,91.60
2023-02-16T03:31:33.010Z,91.70
2023-02-16T03:34:38.039Z,91.90
2023-02-16T03:37:44.994Z,91.80
2023-02-16T03:40:50.767Z,91.90
2023-02-16T03:43:52.884Z,91.90
2023-02-16T03:46:54.953Z,92.00
2023-02-16T03:49:57.908Z,92.10
2023-02-16T03:53:09.189Z,92.20
2023-02-16T03:56:11.391Z,92.50
2023-02-16T03:59:13.437Z,92.70
2023-02-16T04:02:15.673Z,92.80
2023-02-16T04:05:17.825Z,92.90
2023-02-16T04:08:20.015Z,92.90
2023-02-16T04:11:40.580Z,93.00
2023-02-16T04:14:43.754Z,93.20
2023-02-16T04:17:46.356Z,93.40
2023-02-16T04:20:48.597Z,93.50
2023-02-16T04:23:50.860Z,93.70
2023-02-16T04:26:53.149Z,93.70
2023-02-16T04:29:55.224Z,93.80
2023-02-16T04:32:59.684Z,93.90
2023-02-16T04:36:01.783Z,94.00
2023-02-16T04:39:04.050Z,94.10
2023-02-16T04:42:06.463Z,94.00
2023-02-16T04:45:12.695Z,94.10
2023-02-16T04:48:14.863Z,94.10
2023-02-16T04:51:16.895Z,94.10
2023-02-16T04:54:19.097Z,94.30
2023-02-16T04:57:22.692Z,94.30
2023-02-16T05:00:27.217Z,94.30
2023-02-16T05:03:29.302Z,94.20
2023-02-16T05:06:31.558Z,94.30
2023-02-16T05:09:33.723Z,94.30
2023-02-16T05:12:56.123Z,94.30
2023-02-16T05:16:04.944Z,94.30
2023-02-16T05:19:15.514Z,94.30
2023-02-16T05:22:19.244Z,94.30
2023-02-16T05:25:21.252Z,94.40
2023-02-16T05:28:23.575Z,94.40
2023-02-16T05:31:26.848Z,94.30
2023-02-16T05:34:28.989Z,94.30
2023-02-16T05:37:33.647Z,94.30
2023-02-16T05:40:44.735Z,94.30
2023-02-16T05:43:50.348Z,94.30
2023-02-16T05:46:52.531Z,94.30
2023-02-16T05:49:55.391Z,94.30
2023-02-16T05:52:57.902Z,94.30
2023-02-16T05:56:00.111Z,94.40
2023-02-16T05:59:02.322Z,94.50
2023-02-16T06:02:04.776Z,94.60
2023-02-16T06:05:07.220Z,94.60
2023-02-16T06:08:09.288Z,94.70
2023-02-16T06:11:31.862Z,94.80
2023-02-16T06:14:33.897Z,94.80
2023-02-16T06:17:35.980Z,95.00
2023-02-16T06:20:41.958Z,95.00
2023-02-16T06:23:43.964Z,95.00
2023-02-16T06:26:46.381Z,95.20
2023-02-16T06:29:48.531Z,95.10
2023-02-16T06:32:50.540Z,95.20
2023-02-16T06:35:53.976Z,95.20
2023-02-16T06:38:56.181Z,95.10
2023-02-16T06:41:58.453Z,95.00
2023-02-16T06:45:00.404Z,95.20
2023-02-16T06:48:02.413Z,95.10
2023-02-16T06:51:04.950Z,95.20
2023-02-16T06:54:07.289Z,95.30
2023-02-16T06:57:09.336Z,95.20
2023-02-16T07:00:11.956Z,95.20
2023-02-16T07:03:14.309Z,95.30
2023-02-16T07:06:16.609Z,95.30
2023-02-16T07:09:18.620Z,95.30
2023-02-16T07:12:20.730Z,95.40
2023-02-16T07:15:23.372Z,95.30
2023-02-16T07:18:25.582Z,95.30
2023-02-16T07:21:27.650Z,95.30
2023-02-16T07:24:29.686Z,95.10
2023-02-16T07:27:31.736Z,95.00
2023-02-16T07:30:33.951Z,94.90
2023-02-16T07:33:36.488Z,94.80
2023-02-16T07:36:38.571Z,94.80
2023-02-16T07:39:40.579Z,94.60
2023-02-16T07:42:42.670Z,94.50
2023-02-16T07:45:44.836Z,94.40
2023-02-16T07:48:50.581Z,94.30
2023-02-16T07:51:52.607Z,94.00
2023-02-16T07:54:54.796Z,93.50
2023-02-16T07:58:00.242Z,93.00
2023-02-16T08:01:10.843Z,91.80
2023-02-16T08:04:12.870Z,91.50
2023-02-16T08:07:16.232Z,90.40
2023-02-16T08:10:18.341Z,88.40
2023-02-16T08:13:20.362Z,86.10
2023-02-16T08:16:25.703Z,85.00
2023-02-16T08:19:29.417Z,84.20
2023-02-16T08:22:31.495Z,80.70
2023-02-16T08:25:34.628Z,79.60
2023-02-16T08:28:38.125Z,76.90
2023-02-16T08:31:40.321Z,74.00
2023-02-16T08:34:43.670Z,74.10
2023-02-16T08:37:46.176Z,71.00
2023-02-16T08:40:49.394Z,69.60
2023-02-16T08:43:52.495Z,70.00
2023-02-16T08:46:57.500Z,67.70
2023-02-16T08:49:59.851Z,65.40
2023-02-16T08:53:02.536Z,65.40
2023-02-16T08:56:05.314Z,64.90
2023-02-16T08:59:07.664Z,63.60
2023-02-16T09:02:14.599Z,63.30
2023-02-16T09:05:16.870Z,60.00
2023-02-16T09:08:19.825Z,61.90
2023-02-16T09:11:23.195Z,59.20
2023-02-16T09:14:25.561Z,57.50
2023-02-16T09:17:29.208Z,55.20
2023-02-16T09:20:31.381Z,54.10
2023-02-16T09:23:35.793Z,55.20
2023-02-16T09:26:42.753Z,56.00
2023-02-16T09:29:44.797Z,54.80
2023-02-16T09:32:47.200Z,52.40
2023-02-16T09:35:49.755Z,52.70
2023-02-16T09:38:52.656Z,49.40
2023-02-16T09:42:14.892Z,47.90
2023-02-16T09:45:20.519Z,49.50
2023-02-16T09:48:37.556Z,50.00
2023-02-16T09:51:44.685Z,50.60
2023-02-16T09:54:53.552Z,50.80
2023-02-16T09:58:19.301Z,49.50
2023-02-16T10:01:45.707Z,50.60
2023-02-16T10:04:54.290Z,48.70
2023-02-16T10:08:07.810Z,49.60
2023-02-16T10:11:45.760Z,50.10
2023-02-16T10:15:14.195Z,48.40
2023-02-16T10:18:33.656Z,52.40
2023-02-16T10:21:36.268Z,51.10
2023-02-16T10:25:02.478Z,48.50
2023-02-16T10:28:21.792Z,47.90
2023-02-16T10:31:40.429Z,48.50
2023-02-16T10:34:52.203Z,46.90
2023-02-16T10:37:59.385Z,47.70
2023-02-16T10:41:14.321Z,48.60
2023-02-16T10:44:21.079Z,45.40
2023-02-16T10:47:44.134Z,47.20
2023-02-16T10:50:58.923Z,45.20
2023-02-16T10:54:31.429Z,43.80
2023-02-16T10:57:33.817Z,44.80
2023-02-16T11:01:04.356Z,45.00
2023-02-16T11:04:06.721Z,44.70
2023-02-16T11:07:16.121Z,48.10
2023-02-16T11:10:35.194Z,52.10
2023-02-16T11:13:37.518Z,47.50
2023-02-16T11:16:39.582Z,46.30
2023-02-16T11:20:09.576Z,47.40
2023-02-16T11:23:25.339Z,45.20
2023-02-16T11:26:28.972Z,47.80
2023-02-16T11:29:31.696Z,50.90
2023-02-16T11:32:34.524Z,53.10
2023-02-16T11:35:43.646Z,55.10
2023-02-16T11:39:09.734Z,55.90
2023-02-16T11:42:40.405Z,56.70
2023-02-16T11:45:43.252Z,55.80
2023-02-16T11:48:46.433Z,57.70
2023-02-16T11:51:48.563Z,56.80
2023-02-16T11:55:02.112Z,55.90
2023-02-16T11:58:18.105Z,55.10
2023-02-16T12:01:23.270Z,56.40
2023-02-16T12:04:54.409Z,58.20
2023-02-16T12:08:32.436Z,59.90
2023-02-16T12:12:20.288Z,64.00
2023-02-16T12:15:40.167Z,65.70
2023-02-16T12:19:02.838Z,69.60
2023-02-16T12:22:27.668Z,70.90
2023-02-16T12:25:48.518Z,72.60
2023-02-16T12:29:09.211Z,73.50
2023-02-16T12:32:20.284Z,73.70
2023-02-16T12:35:56.974Z,73.40
2023-02-16T12:39:19.586Z,73.60
2023-02-16T12:42:44.452Z,73.40
2023-02-16T12:45:47.341Z,73.50
2023-02-16T12:48:57.192Z,73.50
2023-02-16T12:52:25.768Z,73.90
2023-02-16T12:55:31.123Z,74.70
2023-02-16T12:58:37.703Z,74.00
2023-02-16T13:01:40.546Z,75.40
2023-02-16T13:05:01.957Z,76.00
2023-02-16T13:08:42.576Z,76.10
2023-02-16T13:12:00.077Z,76.00
2023-02-16T13:15:13.330Z,76.10
2023-02-16T13:18:28.530Z,76.40
2023-02-16T13:21:52.793Z,76.40
2023-02-16T13:25:35.897Z,76.60
2023-02-16T13:28:44.105Z,76.80
2023-02-16T13:35:40.897Z,76.80
2023-02-16T13:39:04.507Z,77.10
2023-02-16T13:42:30.068Z,77.70
2023-02-16T13:45:38.517Z,77.80
2023-02-16T13:48:48.751Z,77.50
2023-02-16T13:51:50.834Z,78.30
2023-02-16T13:54:53.796Z,78.10
2023-02-16T13:58:07.763Z,78.10
2023-02-16T14:01:28.615Z,78.10
2023-02-16T14:04:31.588Z,76.60
2023-02-16T14:07:38.027Z,76.40
2023-02-16T14:10:55.211Z,76.00
2023-02-16T14:13:57.298Z,75.20
2023-02-16T14:17:24.157Z,75.40
2023-02-16T14:20:29.227Z,75.00
2023-02-16T14:23:34.925Z,75.40
2023-02-16T14:27:07.778Z,74.50
2023-02-16T14:30:29.066Z,73.00
2023-02-16T14:33:56.719Z,73.50
2023-02-16T14:37:17.155Z,72.80
2023-02-16T14:40:51.767Z,73.60
2023-02-16T14:44:06.161Z,72.60
2023-02-16T14:47:41.470Z,71.70
2023-02-16T14:50:55.320Z,71.80
2023-02-16T14:54:27.533Z,71.30
2023-02-16T14:57:38.493Z,71.70
2023-02-16T15:01:11.206Z,71.50
2023-02-16T15:04:26.336Z,71.50
2023-02-16T15:07:29.015Z,71.50
2023-02-16T15:10:32.358Z,71.60
2023-02-16T15:13:35.026Z,71.90
2023-02-16T15:16:40.950Z,71.60
2023-02-16T15:19:44.112Z,71.20
2023-02-16T15:22:54.517Z,71.20
2023-02-16T15:26:04.147Z,70.50
2023-02-16T15:29:27.243Z,70.60
2023-02-16T15:32:29.280Z,70.90
2023-02-16T15:35:44.054Z,70.80
2023-02-16T15:38:56.959Z,70.40
2023-02-16T15:42:20.855Z,69.70
2023-02-16T15:45:42.066Z,69.90
2023-02-16T15:48:44.446Z,70.20
2023-02-16T15:51:46.488Z,70.10
2023-02-16T15:54:49.331Z,69.60
2023-02-16T15:57:51.452Z,69.40
2023-02-16T16:00:55.045Z,69.90
2023-02-16T16:03:57.219Z,69.90
2023-02-16T16:07:00.382Z,69.40
2023-02-16T16:10:09.603Z,69.30
2023-02-16T16:13:31.050Z,69.40
2023-02-16T16:16:33.744Z,69.10
2023-02-16T16:19:38.437Z,69.40
2023-02-16T16:22:42.993Z,69.20
2023-02-16T16:25:47.878Z,69.40
2023-02-16T16:28:50.638Z,69.00
2023-02-16T16:31:54.004Z,69.70
2023-02-16T16:34:56.674Z,69.40
2023-02-16T16:38:00.875Z,69.10
2023-02-16T16:41:04.178Z,68.80
2023-02-16T16:44:12.664Z,69.10
2023-02-16T16:47:23.822Z,68.50
2023-02-16T16:50:37.216Z,69.00
2023-02-16T16:54:01.837Z,68.60
2023-02-16T16:57:15.241Z,68.90
2023-02-16T17:00:19.518Z,68.90
2023-02-16T17:03:22.594Z,69.20
2023-02-16T17:06:25.843Z,69.20
2023-02-16T17:09:27.938Z,69.50
2023-02-16T17:12:31.703Z,69.60
2023-02-16T17:15:51.837Z,69.70
2023-02-16T17:18:54.363Z,69.90
2023-02-16T17:21:56.377Z,69.70
2023-02-16T17:24:58.510Z,70.10
2023-02-16T17:28:01.242Z,70.10
2023-02-16T17:31:08.366Z,70.50
2023-02-16T17:34:11.438Z,70.90
2023-02-16T17:37:13.593Z,70.60
2023-02-16T17:40:19.688Z,70.60
2023-02-16T17:43:22.850Z,70.50
2023-02-16T17:46:27.048Z,70.60
2023-02-16T17:49:31.366Z,70.90
2023-02-16T17:52:33.419Z,71.10
2023-02-16T17:55:35.367Z,71.30
2023-02-16T17:58:37.357Z,71.50
2023-02-16T18:01:39.410Z,71.30
2023-02-16T18:04:41.542Z,71.50
2023-02-16T18:07:43.625Z,71.70
2023-02-16T18:10:51.505Z,71.90
2023-02-16T18:13:53.633Z,72.30
2023-02-16T18:16:56.017Z,72.60
2023-02-16T18:19:58.041Z,72.80
2023-02-16T18:23:00.529Z,72.90
2023-02-16T18:26:03.570Z,72.90
2023-02-16T18:29:06.074Z,73.10
2023-02-16T18:32:08.250Z,73.30
2023-02-16T18:35:10.935Z,73.50
2023-02-16T18:38:13.550Z,73.80
2023-02-16T18:41:15.621Z,74.10
2023-02-16T18:44:17.807Z,74.40
2023-02-16T18:47:19.979Z,74.60
2023-02-16T18:50:21.923Z,75.30
2023-02-16T18:53:23.914Z,75.50
2023-02-16T18:56:26.093Z,75.70
2023-02-16T18:59:28.381Z,75.80
2023-02-16T19:02:30.417Z,76.40
2023-02-16T19:05:33.849Z,76.60
2023-02-16T19:08:36.235Z,76.80
2023-02-16T19:11:38.292Z,77.10
2023-02-16T19:14:40.393Z,77.00
2023-02-16T19:17:42.913Z,77.60
2023-02-16T19:20:44.922Z,78.00
2023-02-16T19:23:47.131Z,78.40
2023-02-16T19:26:49.321Z,78.80
2023-02-16T19:29:51.504Z,78.70
2023-02-16T19:32:53.549Z,79.00
2023-02-16T19:36:07.346Z,79.20
2023-02-16T19:39:10.464Z,79.60
2023-02-16T19:42:12.639Z,79.60
2023-02-16T19:45:14.647Z,79.80
2023-02-16T19:48:18.966Z,80.00
2023-02-16T19:51:21.050Z,80.00
2023-02-16T19:54:25.274Z,80.20
2023-02-16T19:57:27.444Z,80.10
2023-02-16T20:00:30.369Z,80.20
2023-02-16T20:03:32.493Z,80.70
2023-02-16T20:06:40.559Z,81.00
2023-02-16T20:09:42.915Z,81.30
2023-02-16T20:12:44.947Z,81.40
2023-02-16T20:15:47.198Z,81.40
2023-02-16T20:18:50.452Z,81.40
2023-02-16T20:21:52.474Z,81.50
2023-02-16T20:24:54.526Z,81.70
2023-02-16T20:27:57.878Z,81.60
2023-02-16T20:31:00.109Z,81.60
2023-02-16T20:34:03.266Z,81.70
2023-02-16T20:37:05.307Z,81.70
2023-02-16T20:40:07.921Z,81.90
2023-02-16T20:43:10.158Z,81.70
2023-02-16T20:46:13.083Z,81.70
2023-02-16T20:49:16.524Z,81.60
2023-02-16T20:52:18.570Z,81.50
2023-02-16T20:55:22.544Z,81.40
2023-02-16T20:58:24.670Z,81.50
2023-02-16T21:01:33.342Z,81.80
2023-02-16T21:04:35.431Z,81.90
2023-02-16T21:07:37.541Z,81.90
2023-02-16T21:10:39.925Z,82.00
2023-02-16T21:13:42.065Z,82.10
2023-02-16T21:16:44.281Z,82.20
2023-02-16T21:19:46.318Z,82.50
2023-02-16T21:22:48.370Z,82.50
2023-02-16T21:25:50.418Z,82.70
2023-02-16T21:28:53.042Z,82.90
2023-02-16T21:31:55.144Z,83.00
2023-02-16T21:34:57.242Z,83.20
2023-02-16T21:37:59.368Z,83.20
2023-02-16T21:41:24.796Z,83.00
2023-02-16T21:44:28.501Z,83.70
2023-02-16T21:47:49.136Z,83.90
2023-02-16T21:50:51.245Z,84.00
2023-02-16T21:53:53.912Z,84.00
2023-02-16T21:56:55.921Z,84.20
2023-02-16T21:59:58.022Z,84.30
2023-02-16T22:03:00.226Z,84.50
2023-02-16T22:06:07.342Z,84.80
2023-02-16T22:09:18.004Z,84.80
2023-02-16T22:12:20.042Z,84.90
2023-02-16T22:15:22.449Z,85.30
2023-02-16T22:18:24.517Z,85.50
2023-02-16T22:21:27.784Z,85.60
2023-02-16T22:24:29.963Z,85.60
2023-02-16T22:27:32.081Z,85.80
2023-02-16T22:30:37.143Z,85.90
2023-02-16T22:33:39.243Z,86.00
2023-02-16T22:36:42.070Z,85.90
2023-02-16T22:39:44.232Z,86.10
2023-02-16T22:42:46.713Z,85.90
2023-02-16T22:45:49.623Z,85.90
2023-02-16T22:48:52.328Z,85.80
2023-02-16T22:51:54.420Z,85.90
2023-02-16T22:54:56.853Z,85.70
2023-02-16T22:57:58.870Z,85.50
2023-02-16T23:01:01.041Z,85.40
2023-02-16T23:04:03.122Z,85.20
2023-02-16T23:07:05.245Z,85.10
2023-02-16T23:10:07.789Z,84.80
2023-02-16T23:13:10.290Z,84.80
2023-02-16T23:16:15.010Z,85.60
2023-02-16T23:19:21.125Z,85.00
2023-02-16T23:22:23.125Z,84.90
2023-02-16T23:25:34.080Z,84.80
2023-02-16T23:28:38.366Z,84.80
2023-02-16T23:31:43.404Z,84.70
2023-02-16T23:34:45.455Z,84.70
2023-02-16T23:37:47.618Z,84.60
2023-02-16T23:41:04.641Z,84.60
2023-02-16T23:44:07.769Z,84.50
2023-02-16T23:47:10.212Z,84.60
2023-02-16T23:50:12.355Z,84.50
2023-02-16T23:53:14.424Z,84.50
2023-02-16T23:56:27.847Z,84.30
2023-02-16T23:59:30.598Z,84.20
